San Juan Capistrano, CA (92675)

6:39 AM PDT on August 29, 2015 (GMT -0700)
SJC-NON HOA | | Change Station
CLOSE
Current Station
Personal Weather Station
Location: San Juan Capistrano, CA
Elevation: 131 ft
Nearby Weather Stations

Elev 131 ft 33.51 °N, 117.64 °W | Updated 2 minutes ago

Clear
Clear
63.3 °F
Feels Like 63.3 °F
N
1.1
Wind Variable Wind from ESE

Today
High -- | Low -- °F
--% Chance of Precip.
Yesterday
High -- | Low -- °F
Precip. -- in
6:22 AM 7:19 PM
Full, 100% visible
Pressure 29.85 in
Visibility 10.0 miles
Clouds Clear
Dew Point 57 °F
Humidity 80%
Rainfall 0.00 in
Snow Depth Not available.
UV 0 out of 12
Pollen 6.60 out of 12
Air Quality Not available.
Flu Activity Not available.
METAR KSNA 291253Z 00000KT 10SM CLR 22/17 A2985 RMK AO2 SLP106 T02220167
Pressure 29.85 in
Visibility 10.0 miles
Clouds Clear
Dew Point 57 °F
Humidity 80%
Rainfall 0.00 in
Snow Depth Not available.
UV 0 out of 12
Pollen 6.60 out of 12
Air Quality Not available.
Flu Activity Not available.
METAR KSNA 291253Z 00000KT 10SM CLR 22/17 A2985 RMK AO2 SLP106 T02220167

10-Day Weather Forecast

×

Almanac

Astronomy

Aug. 29, 2015 Rise Set
Actual Time
Civil Twilight
Nautical Twilight
Astronomical Twilight
Moon
Length of Visible Light
Length of Day
Tomorrow will be .
, % of the Moon is Illuminated

Today's Extremes

State Highs State Lows

Community

WunderPhotos

Upload Photos

1,850,686 photos uploaded!

WunderBlogs® & News

Nearby

Air Quality

  Air Quality AQ Index Pollutant
Not available.

Snow Depth

Station Depth Elevation

Earthquake Activity

City Distance Mag. Time & Date
Minimum magnitude displayed is 2.5.

Coastal Water Temperatures

Place Temperature

Stations

Nearby Weather Stations

Station Location Temp. Windchill Dew Point Humidity Wind Precip. Elev Updated Type